sensor_id;sensor_type;location;lat;lon;timestamp;P1;durP1;ratioP1;P2;durP2;ratioP2
20142;SDS011;10509;46.476;7.134;2023-08-06T00:00:23;0.53;;;0.53;;
20142;SDS011;10509;46.476;7.134;2023-08-06T00:02:48;0.80;;;0.80;;
20142;SDS011;10509;46.476;7.134;2023-08-06T00:05:14;1.53;;;0.80;;
20142;SDS011;10509;46.476;7.134;2023-08-06T00:07:43;0.70;;;0.70;;
20142;SDS011;10509;46.476;7.134;2023-08-06T00:10:09;1.27;;;0.70;;
20142;SDS011;10509;46.476;7.134;2023-08-06T00:12:35;2.03;;;0.90;;
20142;SDS011;10509;46.476;7.134;2023-08-06T00:15:01;1.43;;;0.77;;
20142;SDS011;10509;46.476;7.134;2023-08-06T00:17:26;1.00;;;0.83;;
20142;SDS011;10509;46.476;7.134;2023-08-06T00:19:52;1.13;;;0.80;;
20142;SDS011;10509;46.476;7.134;2023-08-06T00:22:18;1.07;;;0.80;;
20142;SDS011;10509;46.476;7.134;2023-08-06T00:24:43;1.20;;;0.80;;
20142;SDS011;10509;46.476;7.134;2023-08-06T00:27:09;1.00;;;0.80;;
20142;SDS011;10509;46.476;7.134;2023-08-06T00:29:35;0.70;;;0.60;;
20142;SDS011;10509;46.476;7.134;2023-08-06T00:32:00;1.03;;;0.90;;
20142;SDS011;10509;46.476;7.134;2023-08-06T00:34:26;0.90;;;0.80;;
20142;SDS011;10509;46.476;7.134;2023-08-06T00:36:51;1.13;;;0.80;;
20142;SDS011;10509;46.476;7.134;2023-08-06T00:39:18;0.90;;;0.90;;
20142;SDS011;10509;46.476;7.134;2023-08-06T00:41:44;0.83;;;0.80;;
20142;SDS011;10509;46.476;7.134;2023-08-06T00:44:10;0.90;;;0.80;;
20142;SDS011;10509;46.476;7.134;2023-08-06T00:46:35;0.80;;;0.80;;
20142;SDS011;10509;46.476;7.134;2023-08-06T00:49:01;1.67;;;0.80;;
20142;SDS011;10509;46.476;7.134;2023-08-06T00:51:27;1.00;;;0.80;;
20142;SDS011;10509;46.476;7.134;2023-08-06T00:53:53;0.80;;;0.70;;
20142;SDS011;10509;46.476;7.134;2023-08-06T00:56:19;1.10;;;0.90;;
20142;SDS011;10509;46.476;7.134;2023-08-06T00:58:45;1.00;;;0.90;;
20142;SDS011;10509;46.476;7.134;2023-08-06T01:01:11;1.03;;;0.80;;
20142;SDS011;10509;46.476;7.134;2023-08-06T01:03:37;1.00;;;0.80;;
20142;SDS011;10509;46.476;7.134;2023-08-06T01:06:02;1.20;;;0.80;;
20142;SDS011;10509;46.476;7.134;2023-08-06T01:11:40;1.00;;;0.90;;
20142;SDS011;10509;46.476;7.134;2023-08-06T01:14:30;0.90;;;0.80;;
20142;SDS011;10509;46.476;7.134;2023-08-06T01:17:07;1.37;;;0.80;;
20142;SDS011;10509;46.476;7.134;2023-08-06T01:19:33;0.80;;;0.80;;
20142;SDS011;10509;46.476;7.134;2023-08-06T01:21:58;0.90;;;0.70;;
20142;SDS011;10509;46.476;7.134;2023-08-06T01:24:24;0.93;;;0.80;;
20142;SDS011;10509;46.476;7.134;2023-08-06T01:29:44;0.60;;;0.60;;
20142;SDS011;10509;46.476;7.134;2023-08-06T01:32:17;0.63;;;0.60;;
20142;SDS011;10509;46.476;7.134;2023-08-06T01:34:45;0.87;;;0.60;;
20142;SDS011;10509;46.476;7.134;2023-08-06T01:37:13;0.80;;;0.70;;
20142;SDS011;10509;46.476;7.134;2023-08-06T01:39:39;0.63;;;0.60;;
20142;SDS011;10509;46.476;7.134;2023-08-06T01:42:07;1.77;;;0.77;;
20142;SDS011;10509;46.476;7.134;2023-08-06T01:44:33;0.70;;;0.67;;
20142;SDS011;10509;46.476;7.134;2023-08-06T01:46:59;0.93;;;0.60;;
20142;SDS011;10509;46.476;7.134;2023-08-06T01:49:24;1.03;;;0.60;;
20142;SDS011;10509;46.476;7.134;2023-08-06T01:51:50;0.90;;;0.70;;
20142;SDS011;10509;46.476;7.134;2023-08-06T01:54:16;1.40;;;0.93;;
20142;SDS011;10509;46.476;7.134;2023-08-06T01:56:41;0.80;;;0.60;;
20142;SDS011;10509;46.476;7.134;2023-08-06T01:59:07;0.70;;;0.70;;
20142;SDS011;10509;46.476;7.134;2023-08-06T02:01:32;0.70;;;0.70;;
20142;SDS011;10509;46.476;7.134;2023-08-06T02:03:58;0.60;;;0.60;;
20142;SDS011;10509;46.476;7.134;2023-08-06T02:06:24;1.93;;;0.60;;
20142;SDS011;10509;46.476;7.134;2023-08-06T02:08:49;1.80;;;0.80;;
20142;SDS011;10509;46.476;7.134;2023-08-06T02:11:15;0.80;;;0.70;;
20142;SDS011;10509;46.476;7.134;2023-08-06T02:13:41;1.37;;;0.60;;
20142;SDS011;10509;46.476;7.134;2023-08-06T02:16:07;1.03;;;0.77;;
20142;SDS011;10509;46.476;7.134;2023-08-06T02:18:33;0.70;;;0.70;;
20142;SDS011;10509;46.476;7.134;2023-08-06T02:20:59;0.80;;;0.80;;
20142;SDS011;10509;46.476;7.134;2023-08-06T02:23:25;0.73;;;0.60;;
20142;SDS011;10509;46.476;7.134;2023-08-06T02:26:01;1.00;;;0.80;;
20142;SDS011;10509;46.476;7.134;2023-08-06T02:28:28;0.70;;;0.70;;
20142;SDS011;10509;46.476;7.134;2023-08-06T02:30:54;1.00;;;0.60;;
20142;SDS011;10509;46.476;7.134;2023-08-06T02:33:20;1.00;;;0.60;;
20142;SDS011;10509;46.476;7.134;2023-08-06T02:35:46;0.60;;;0.50;;
20142;SDS011;10509;46.476;7.134;2023-08-06T02:38:12;0.67;;;0.50;;
20142;SDS011;10509;46.476;7.134;2023-08-06T02:40:42;0.90;;;0.60;;
20142;SDS011;10509;46.476;7.134;2023-08-06T02:43:09;0.57;;;0.50;;
20142;SDS011;10509;46.476;7.134;2023-08-06T02:45:35;1.00;;;0.60;;
20142;SDS011;10509;46.476;7.134;2023-08-06T02:48:00;0.90;;;0.57;;
20142;SDS011;10509;46.476;7.134;2023-08-06T02:50:27;1.80;;;0.67;;
20142;SDS011;10509;46.476;7.134;2023-08-06T02:52:53;1.30;;;0.70;;
20142;SDS011;10509;46.476;7.134;2023-08-06T02:55:18;0.87;;;0.60;;
20142;SDS011;10509;46.476;7.134;2023-08-06T02:57:44;1.93;;;0.60;;
20142;SDS011;10509;46.476;7.134;2023-08-06T03:00:10;1.43;;;0.77;;
20142;SDS011;10509;46.476;7.134;2023-08-06T03:02:36;1.07;;;0.60;;
20142;SDS011;10509;46.476;7.134;2023-08-06T03:05:02;0.80;;;0.60;;
20142;SDS011;10509;46.476;7.134;2023-08-06T03:07:28;0.90;;;0.60;;
20142;SDS011;10509;46.476;7.134;2023-08-06T03:09:54;0.87;;;0.40;;
20142;SDS011;10509;46.476;7.134;2023-08-06T03:12:20;0.57;;;0.50;;
20142;SDS011;10509;46.476;7.134;2023-08-06T03:14:45;1.60;;;0.60;;
20142;SDS011;10509;46.476;7.134;2023-08-06T03:17:11;1.13;;;0.50;;
20142;SDS011;10509;46.476;7.134;2023-08-06T03:19:37;1.00;;;0.70;;
20142;SDS011;10509;46.476;7.134;2023-08-06T03:22:02;0.93;;;0.60;;
20142;SDS011;10509;46.476;7.134;2023-08-06T03:24:28;0.97;;;0.60;;
20142;SDS011;10509;46.476;7.134;2023-08-06T03:26:53;1.10;;;0.60;;
20142;SDS011;10509;46.476;7.134;2023-08-06T03:29:19;2.00;;;0.70;;
20142;SDS011;10509;46.476;7.134;2023-08-06T03:31:46;1.70;;;0.60;;
20142;SDS011;10509;46.476;7.134;2023-08-06T03:34:11;0.83;;;0.60;;
20142;SDS011;10509;46.476;7.134;2023-08-06T03:36:37;0.63;;;0.50;;
20142;SDS011;10509;46.476;7.134;2023-08-06T03:39:03;1.63;;;0.70;;
20142;SDS011;10509;46.476;7.134;2023-08-06T03:41:28;0.87;;;0.57;;
20142;SDS011;10509;46.476;7.134;2023-08-06T03:43:54;1.10;;;0.60;;
20142;SDS011;10509;46.476;7.134;2023-08-06T03:46:20;0.90;;;0.50;;
20142;SDS011;10509;46.476;7.134;2023-08-06T03:48:45;0.80;;;0.50;;
20142;SDS011;10509;46.476;7.134;2023-08-06T03:51:11;0.83;;;0.40;;
20142;SDS011;10509;46.476;7.134;2023-08-06T03:53:36;1.47;;;0.50;;
20142;SDS011;10509;46.476;7.134;2023-08-06T03:56:02;0.67;;;0.50;;
20142;SDS011;10509;46.476;7.134;2023-08-06T03:58:28;0.63;;;0.50;;
20142;SDS011;10509;46.476;7.134;2023-08-06T04:00:58;1.03;;;0.53;;
20142;SDS011;10509;46.476;7.134;2023-08-06T04:03:25;1.20;;;0.60;;
20142;SDS011;10509;46.476;7.134;2023-08-06T04:05:51;0.67;;;0.53;;
20142;SDS011;10509;46.476;7.134;2023-08-06T04:08:16;0.93;;;0.50;;
20142;SDS011;10509;46.476;7.134;2023-08-06T04:10:42;0.83;;;0.60;;
20142;SDS011;10509;46.476;7.134;2023-08-06T04:13:07;0.60;;;0.40;;
20142;SDS011;10509;46.476;7.134;2023-08-06T04:15:33;1.03;;;0.50;;
20142;SDS011;10509;46.476;7.134;2023-08-06T04:17:59;0.73;;;0.50;;
20142;SDS011;10509;46.476;7.134;2023-08-06T04:20:25;0.97;;;0.50;;
20142;SDS011;10509;46.476;7.134;2023-08-06T04:22:50;0.80;;;0.50;;
20142;SDS011;10509;46.476;7.134;2023-08-06T04:25:16;2.53;;;0.80;;
20142;SDS011;10509;46.476;7.134;2023-08-06T04:27:46;1.73;;;0.77;;
20142;SDS011;10509;46.476;7.134;2023-08-06T04:30:12;2.77;;;0.80;;
20142;SDS011;10509;46.476;7.134;2023-08-06T04:32:39;1.13;;;0.50;;
20142;SDS011;10509;46.476;7.134;2023-08-06T04:35:05;1.60;;;0.70;;
20142;SDS011;10509;46.476;7.134;2023-08-06T04:37:31;0.93;;;0.60;;
20142;SDS011;10509;46.476;7.134;2023-08-06T04:39:57;1.20;;;0.50;;
20142;SDS011;10509;46.476;7.134;2023-08-06T04:42:22;1.73;;;0.60;;
20142;SDS011;10509;46.476;7.134;2023-08-06T04:44:48;1.67;;;0.77;;
20142;SDS011;10509;46.476;7.134;2023-08-06T04:47:14;2.00;;;0.70;;
20142;SDS011;10509;46.476;7.134;2023-08-06T04:49:39;1.13;;;0.60;;
20142;SDS011;10509;46.476;7.134;2023-08-06T04:52:05;1.23;;;0.60;;
20142;SDS011;10509;46.476;7.134;2023-08-06T04:54:31;1.60;;;0.70;;
20142;SDS011;10509;46.476;7.134;2023-08-06T04:56:57;1.73;;;0.53;;
20142;SDS011;10509;46.476;7.134;2023-08-06T04:59:22;1.73;;;0.70;;
20142;SDS011;10509;46.476;7.134;2023-08-06T05:01:48;1.00;;;0.60;;
20142;SDS011;10509;46.476;7.134;2023-08-06T05:04:13;1.53;;;0.63;;
20142;SDS011;10509;46.476;7.134;2023-08-06T05:06:39;1.57;;;0.60;;
20142;SDS011;10509;46.476;7.134;2023-08-06T05:09:05;1.63;;;0.70;;
20142;SDS011;10509;46.476;7.134;2023-08-06T05:11:31;1.97;;;0.80;;
20142;SDS011;10509;46.476;7.134;2023-08-06T05:13:56;1.70;;;0.83;;
20142;SDS011;10509;46.476;7.134;2023-08-06T05:16:22;2.37;;;0.80;;
20142;SDS011;10509;46.476;7.134;2023-08-06T05:18:48;3.87;;;1.10;;
20142;SDS011;10509;46.476;7.134;2023-08-06T05:21:14;5.53;;;1.27;;
20142;SDS011;10509;46.476;7.134;2023-08-06T05:23:41;3.37;;;1.00;;
20142;SDS011;10509;46.476;7.134;2023-08-06T05:26:07;3.23;;;1.00;;
20142;SDS011;10509;46.476;7.134;2023-08-06T05:28:33;4.43;;;1.50;;
20142;SDS011;10509;46.476;7.134;2023-08-06T05:31:02;4.53;;;1.10;;
20142;SDS011;10509;46.476;7.134;2023-08-06T05:33:31;3.67;;;1.07;;
20142;SDS011;10509;46.476;7.134;2023-08-06T05:35:56;4.07;;;1.00;;
20142;SDS011;10509;46.476;7.134;2023-08-06T05:38:22;3.70;;;1.17;;
20142;SDS011;10509;46.476;7.134;2023-08-06T05:40:48;3.27;;;0.90;;
20142;SDS011;10509;46.476;7.134;2023-08-06T05:43:14;2.60;;;1.00;;
20142;SDS011;10509;46.476;7.134;2023-08-06T05:45:43;3.50;;;1.20;;
20142;SDS011;10509;46.476;7.134;2023-08-06T05:48:10;3.97;;;1.20;;
20142;SDS011;10509;46.476;7.134;2023-08-06T05:50:35;2.63;;;1.20;;
20142;SDS011;10509;46.476;7.134;2023-08-06T05:53:01;2.53;;;0.93;;
20142;SDS011;10509;46.476;7.134;2023-08-06T05:55:30;3.33;;;0.90;;
20142;SDS011;10509;46.476;7.134;2023-08-06T05:57:57;3.30;;;0.90;;
20142;SDS011;10509;46.476;7.134;2023-08-06T06:00:22;3.10;;;1.20;;
20142;SDS011;10509;46.476;7.134;2023-08-06T06:02:48;3.23;;;1.13;;
20142;SDS011;10509;46.476;7.134;2023-08-06T06:05:14;3.40;;;1.00;;
20142;SDS011;10509;46.476;7.134;2023-08-06T06:07:39;3.53;;;1.10;;
20142;SDS011;10509;46.476;7.134;2023-08-06T06:10:05;3.27;;;1.00;;
20142;SDS011;10509;46.476;7.134;2023-08-06T06:12:31;3.00;;;1.00;;
20142;SDS011;10509;46.476;7.134;2023-08-06T06:14:57;3.43;;;1.00;;
20142;SDS011;10509;46.476;7.134;2023-08-06T06:17:22;3.10;;;0.90;;
20142;SDS011;10509;46.476;7.134;2023-08-06T06:19:48;3.07;;;0.60;;
20142;SDS011;10509;46.476;7.134;2023-08-06T06:22:14;2.63;;;0.80;;
20142;SDS011;10509;46.476;7.134;2023-08-06T06:24:40;1.97;;;0.60;;
20142;SDS011;10509;46.476;7.134;2023-08-06T06:27:05;2.77;;;0.70;;
20142;SDS011;10509;46.476;7.134;2023-08-06T06:29:31;2.30;;;0.90;;
20142;SDS011;10509;46.476;7.134;2023-08-06T06:31:56;1.33;;;0.40;;
20142;SDS011;10509;46.476;7.134;2023-08-06T06:34:22;1.77;;;0.50;;
20142;SDS011;10509;46.476;7.134;2023-08-06T06:36:48;1.67;;;0.60;;
20142;SDS011;10509;46.476;7.134;2023-08-06T06:39:13;0.97;;;0.50;;
20142;SDS011;10509;46.476;7.134;2023-08-06T06:41:40;1.60;;;0.53;;
20142;SDS011;10509;46.476;7.134;2023-08-06T06:44:06;0.80;;;0.40;;
20142;SDS011;10509;46.476;7.134;2023-08-06T06:46:32;1.87;;;0.43;;
20142;SDS011;10509;46.476;7.134;2023-08-06T06:48:57;1.03;;;0.50;;
20142;SDS011;10509;46.476;7.134;2023-08-06T06:51:23;1.13;;;0.40;;
20142;SDS011;10509;46.476;7.134;2023-08-06T06:53:48;1.13;;;0.47;;
20142;SDS011;10509;46.476;7.134;2023-08-06T06:56:14;1.37;;;0.33;;
20142;SDS011;10509;46.476;7.134;2023-08-06T06:58:40;1.27;;;0.40;;
20142;SDS011;10509;46.476;7.134;2023-08-06T07:01:06;0.93;;;0.30;;
20142;SDS011;10509;46.476;7.134;2023-08-06T07:03:32;1.00;;;0.30;;
20142;SDS011;10509;46.476;7.134;2023-08-06T07:05:58;0.87;;;0.37;;
20142;SDS011;10509;46.476;7.134;2023-08-06T07:08:24;0.60;;;0.20;;
20142;SDS011;10509;46.476;7.134;2023-08-06T07:10:50;0.80;;;0.30;;
20142;SDS011;10509;46.476;7.134;2023-08-06T07:13:16;1.27;;;0.50;;
20142;SDS011;10509;46.476;7.134;2023-08-06T07:15:41;0.67;;;0.30;;
20142;SDS011;10509;46.476;7.134;2023-08-06T07:18:07;0.43;;;0.20;;
20142;SDS011;10509;46.476;7.134;2023-08-06T07:20:33;1.23;;;0.50;;
20142;SDS011;10509;46.476;7.134;2023-08-06T07:22:59;0.60;;;0.40;;
20142;SDS011;10509;46.476;7.134;2023-08-06T07:25:25;1.33;;;0.33;;
20142;SDS011;10509;46.476;7.134;2023-08-06T07:27:51;1.23;;;0.40;;
20142;SDS011;10509;46.476;7.134;2023-08-06T07:30:16;1.03;;;0.40;;
20142;SDS011;10509;46.476;7.134;2023-08-06T07:32:42;1.43;;;0.30;;
20142;SDS011;10509;46.476;7.134;2023-08-06T07:35:08;1.20;;;0.40;;
20142;SDS011;10509;46.476;7.134;2023-08-06T07:37:37;1.23;;;0.40;;
20142;SDS011;10509;46.476;7.134;2023-08-06T07:40:03;1.40;;;0.30;;
20142;SDS011;10509;46.476;7.134;2023-08-06T07:42:30;0.90;;;0.30;;
20142;SDS011;10509;46.476;7.134;2023-08-06T07:44:55;0.93;;;0.40;;
20142;SDS011;10509;46.476;7.134;2023-08-06T07:47:23;1.50;;;0.60;;
20142;SDS011;10509;46.476;7.134;2023-08-06T07:49:49;1.20;;;0.40;;
20142;SDS011;10509;46.476;7.134;2023-08-06T07:52:14;0.90;;;0.30;;
20142;SDS011;10509;46.476;7.134;2023-08-06T07:54:40;1.47;;;0.50;;
20142;SDS011;10509;46.476;7.134;2023-08-06T07:57:06;1.50;;;0.50;;
20142;SDS011;10509;46.476;7.134;2023-08-06T07:59:32;0.93;;;0.60;;
20142;SDS011;10509;46.476;7.134;2023-08-06T08:01:57;1.27;;;0.40;;
20142;SDS011;10509;46.476;7.134;2023-08-06T08:04:23;1.10;;;0.40;;
20142;SDS011;10509;46.476;7.134;2023-08-06T08:06:49;0.67;;;0.30;;
20142;SDS011;10509;46.476;7.134;2023-08-06T08:09:15;0.53;;;0.20;;
20142;SDS011;10509;46.476;7.134;2023-08-06T08:11:41;0.70;;;0.30;;
20142;SDS011;10509;46.476;7.134;2023-08-06T08:14:07;0.70;;;0.20;;
20142;SDS011;10509;46.476;7.134;2023-08-06T08:16:32;0.97;;;0.40;;
20142;SDS011;10509;46.476;7.134;2023-08-06T08:18:58;1.33;;;0.30;;
20142;SDS011;10509;46.476;7.134;2023-08-06T08:21:24;0.73;;;0.30;;
20142;SDS011;10509;46.476;7.134;2023-08-06T08:23:50;0.80;;;0.30;;
20142;SDS011;10509;46.476;7.134;2023-08-06T08:26:16;1.13;;;0.30;;
20142;SDS011;10509;46.476;7.134;2023-08-06T08:28:42;0.50;;;0.20;;
20142;SDS011;10509;46.476;7.134;2023-08-06T08:31:08;1.67;;;0.20;;
20142;SDS011;10509;46.476;7.134;2023-08-06T08:33:34;0.50;;;0.23;;
20142;SDS011;10509;46.476;7.134;2023-08-06T08:36:00;2.60;;;0.30;;
20142;SDS011;10509;46.476;7.134;2023-08-06T08:38:26;0.90;;;0.30;;
20142;SDS011;10509;46.476;7.134;2023-08-06T08:40:51;1.23;;;0.97;;
20142;SDS011;10509;46.476;7.134;2023-08-06T08:43:20;1.07;;;0.87;;
20142;SDS011;10509;46.476;7.134;2023-08-06T08:45:49;1.23;;;0.60;;
20142;SDS011;10509;46.476;7.134;2023-08-06T08:48:16;0.40;;;0.30;;
20142;SDS011;10509;46.476;7.134;2023-08-06T08:50:44;0.47;;;0.30;;
20142;SDS011;10509;46.476;7.134;2023-08-06T08:53:12;1.67;;;0.20;;
20142;SDS011;10509;46.476;7.134;2023-08-06T08:55:39;0.60;;;0.30;;
20142;SDS011;10509;46.476;7.134;2023-08-06T08:58:05;0.80;;;0.40;;
20142;SDS011;10509;46.476;7.134;2023-08-06T09:00:31;0.40;;;0.20;;
20142;SDS011;10509;46.476;7.134;2023-08-06T09:02:57;0.63;;;0.20;;
20142;SDS011;10509;46.476;7.134;2023-08-06T09:05:26;0.47;;;0.20;;
20142;SDS011;10509;46.476;7.134;2023-08-06T09:07:55;0.50;;;0.10;;
20142;SDS011;10509;46.476;7.134;2023-08-06T09:10:29;0.57;;;0.20;;
20142;SDS011;10509;46.476;7.134;2023-08-06T09:12:56;0.40;;;0.20;;
20142;SDS011;10509;46.476;7.134;2023-08-06T09:15:26;0.40;;;0.20;;
20142;SDS011;10509;46.476;7.134;2023-08-06T09:17:52;0.50;;;0.20;;
20142;SDS011;10509;46.476;7.134;2023-08-06T09:20:18;0.43;;;0.20;;
20142;SDS011;10509;46.476;7.134;2023-08-06T09:22:44;0.23;;;0.20;;
20142;SDS011;10509;46.476;7.134;2023-08-06T09:25:10;0.50;;;0.10;;
20142;SDS011;10509;46.476;7.134;2023-08-06T09:27:38;0.90;;;0.30;;
20142;SDS011;10509;46.476;7.134;2023-08-06T09:30:06;0.40;;;0.20;;
20142;SDS011;10509;46.476;7.134;2023-08-06T09:32:48;0.20;;;0.10;;
20142;SDS011;10509;46.476;7.134;2023-08-06T09:35:19;0.33;;;0.20;;
20142;SDS011;10509;46.476;7.134;2023-08-06T09:37:46;0.10;;;0.03;;
20142;SDS011;10509;46.476;7.134;2023-08-06T09:40:25;0.13;;;0.10;;
20142;SDS011;10509;46.476;7.134;2023-08-06T09:42:55;0.60;;;0.20;;
20142;SDS011;10509;46.476;7.134;2023-08-06T09:45:22;0.00;;;0.00;;
20142;SDS011;10509;46.476;7.134;2023-08-06T09:47:49;0.40;;;0.10;;
20142;SDS011;10509;46.476;7.134;2023-08-06T09:50:18;0.27;;;0.10;;
20142;SDS011;10509;46.476;7.134;2023-08-06T09:52:45;0.27;;;0.10;;
20142;SDS011;10509;46.476;7.134;2023-08-06T09:55:12;0.10;;;0.10;;
20142;SDS011;10509;46.476;7.134;2023-08-06T09:57:39;0.40;;;0.20;;
20142;SDS011;10509;46.476;7.134;2023-08-06T10:00:06;1.40;;;0.10;;
20142;SDS011;10509;46.476;7.134;2023-08-06T10:02:34;0.20;;;0.10;;
20142;SDS011;10509;46.476;7.134;2023-08-06T10:05:02;0.37;;;0.27;;
20142;SDS011;10509;46.476;7.134;2023-08-06T10:07:29;0.30;;;0.10;;
20142;SDS011;10509;46.476;7.134;2023-08-06T10:09:55;0.63;;;0.20;;
20142;SDS011;10509;46.476;7.134;2023-08-06T10:12:21;0.87;;;0.20;;
20142;SDS011;10509;46.476;7.134;2023-08-06T10:14:49;0.10;;;0.00;;
20142;SDS011;10509;46.476;7.134;2023-08-06T10:17:18;0.50;;;0.10;;
20142;SDS011;10509;46.476;7.134;2023-08-06T10:19:47;0.10;;;0.10;;
20142;SDS011;10509;46.476;7.134;2023-08-06T10:22:15;0.30;;;0.10;;
20142;SDS011;10509;46.476;7.134;2023-08-06T10:28:01;0.30;;;0.30;;
20142;SDS011;10509;46.476;7.134;2023-08-06T10:30:25;0.20;;;0.10;;
20142;SDS011;10509;46.476;7.134;2023-08-06T10:32:55;0.30;;;0.20;;
20142;SDS011;10509;46.476;7.134;2023-08-06T10:38:12;0.30;;;0.10;;
20142;SDS011;10509;46.476;7.134;2023-08-06T10:40:40;0.13;;;0.10;;
20142;SDS011;10509;46.476;7.134;2023-08-06T10:43:07;0.10;;;0.10;;
20142;SDS011;10509;46.476;7.134;2023-08-06T10:45:49;0.20;;;0.10;;
20142;SDS011;10509;46.476;7.134;2023-08-06T10:48:27;0.17;;;0.10;;
20142;SDS011;10509;46.476;7.134;2023-08-06T10:51:08;0.60;;;0.10;;
20142;SDS011;10509;46.476;7.134;2023-08-06T10:53:35;0.20;;;0.10;;
20142;SDS011;10509;46.476;7.134;2023-08-06T10:56:01;0.40;;;0.10;;
20142;SDS011;10509;46.476;7.134;2023-08-06T10:58:36;0.27;;;0.10;;
20142;SDS011;10509;46.476;7.134;2023-08-06T11:01:02;0.20;;;0.10;;
20142;SDS011;10509;46.476;7.134;2023-08-06T11:03:28;0.60;;;0.20;;
20142;SDS011;10509;46.476;7.134;2023-08-06T11:05:53;0.37;;;0.13;;
20142;SDS011;10509;46.476;7.134;2023-08-06T11:08:23;0.20;;;0.10;;
20142;SDS011;10509;46.476;7.134;2023-08-06T11:10:50;0.20;;;0.10;;
20142;SDS011;10509;46.476;7.134;2023-08-06T11:13:20;0.20;;;0.10;;
20142;SDS011;10509;46.476;7.134;2023-08-06T11:15:46;0.40;;;0.10;;
20142;SDS011;10509;46.476;7.134;2023-08-06T11:18:12;0.13;;;0.10;;
20142;SDS011;10509;46.476;7.134;2023-08-06T11:20:39;0.77;;;0.10;;
20142;SDS011;10509;46.476;7.134;2023-08-06T11:23:05;0.20;;;0.10;;
20142;SDS011;10509;46.476;7.134;2023-08-06T11:25:35;0.50;;;0.20;;
20142;SDS011;10509;46.476;7.134;2023-08-06T11:28:02;0.60;;;0.10;;
20142;SDS011;10509;46.476;7.134;2023-08-06T11:30:28;0.27;;;0.10;;
20142;SDS011;10509;46.476;7.134;2023-08-06T11:32:54;0.50;;;0.40;;
20142;SDS011;10509;46.476;7.134;2023-08-06T11:35:19;0.13;;;0.10;;
20142;SDS011;10509;46.476;7.134;2023-08-06T11:37:45;0.37;;;0.10;;
20142;SDS011;10509;46.476;7.134;2023-08-06T11:40:11;0.30;;;0.20;;
20142;SDS011;10509;46.476;7.134;2023-08-06T11:42:39;0.20;;;0.20;;
20142;SDS011;10509;46.476;7.134;2023-08-06T11:45:05;0.50;;;0.20;;
20142;SDS011;10509;46.476;7.134;2023-08-06T11:47:31;0.10;;;0.10;;
20142;SDS011;10509;46.476;7.134;2023-08-06T11:49:57;0.30;;;0.10;;
20142;SDS011;10509;46.476;7.134;2023-08-06T11:52:23;0.20;;;0.10;;
20142;SDS011;10509;46.476;7.134;2023-08-06T11:54:59;0.33;;;0.20;;
20142;SDS011;10509;46.476;7.134;2023-08-06T11:57:31;0.30;;;0.10;;
20142;SDS011;10509;46.476;7.134;2023-08-06T12:00:06;0.37;;;0.20;;
20142;SDS011;10509;46.476;7.134;2023-08-06T12:02:33;0.60;;;0.30;;
20142;SDS011;10509;46.476;7.134;2023-08-06T12:05:04;0.10;;;0.10;;
20142;SDS011;10509;46.476;7.134;2023-08-06T12:07:44;0.10;;;0.10;;
20142;SDS011;10509;46.476;7.134;2023-08-06T12:10:15;0.10;;;0.10;;
20142;SDS011;10509;46.476;7.134;2023-08-06T12:12:42;0.10;;;0.10;;
20142;SDS011;10509;46.476;7.134;2023-08-06T12:15:08;0.10;;;0.10;;
20142;SDS011;10509;46.476;7.134;2023-08-06T12:17:35;0.30;;;0.10;;
20142;SDS011;10509;46.476;7.134;2023-08-06T12:20:01;0.30;;;0.20;;
20142;SDS011;10509;46.476;7.134;2023-08-06T12:22:32;0.40;;;0.30;;
20142;SDS011;10509;46.476;7.134;2023-08-06T12:25:02;0.20;;;0.20;;
20142;SDS011;10509;46.476;7.134;2023-08-06T12:27:35;0.10;;;0.10;;
20142;SDS011;10509;46.476;7.134;2023-08-06T12:30:02;0.20;;;0.20;;
20142;SDS011;10509;46.476;7.134;2023-08-06T12:32:28;0.80;;;0.13;;
20142;SDS011;10509;46.476;7.134;2023-08-06T12:34:54;0.40;;;0.30;;
20142;SDS011;10509;46.476;7.134;2023-08-06T12:37:20;0.20;;;0.10;;
20142;SDS011;10509;46.476;7.134;2023-08-06T12:39:46;0.20;;;0.10;;
20142;SDS011;10509;46.476;7.134;2023-08-06T12:42:11;0.30;;;0.10;;
20142;SDS011;10509;46.476;7.134;2023-08-06T12:44:37;0.10;;;0.10;;
20142;SDS011;10509;46.476;7.134;2023-08-06T12:47:03;0.20;;;0.10;;
20142;SDS011;10509;46.476;7.134;2023-08-06T12:49:29;0.40;;;0.17;;
20142;SDS011;10509;46.476;7.134;2023-08-06T12:51:56;0.10;;;0.10;;
20142;SDS011;10509;46.476;7.134;2023-08-06T12:54:24;0.10;;;0.10;;
20142;SDS011;10509;46.476;7.134;2023-08-06T12:56:50;0.20;;;0.20;;
20142;SDS011;10509;46.476;7.134;2023-08-06T12:59:16;0.23;;;0.10;;
20142;SDS011;10509;46.476;7.134;2023-08-06T13:01:43;0.30;;;0.10;;
20142;SDS011;10509;46.476;7.134;2023-08-06T13:04:09;0.20;;;0.10;;
20142;SDS011;10509;46.476;7.134;2023-08-06T13:06:35;0.10;;;0.10;;
20142;SDS011;10509;46.476;7.134;2023-08-06T13:09:08;0.40;;;0.20;;
20142;SDS011;10509;46.476;7.134;2023-08-06T13:11:35;1.57;;;0.20;;
20142;SDS011;10509;46.476;7.134;2023-08-06T13:14:05;0.50;;;0.13;;
20142;SDS011;10509;46.476;7.134;2023-08-06T13:16:32;0.10;;;0.10;;
20142;SDS011;10509;46.476;7.134;2023-08-06T13:18:58;0.20;;;0.20;;
20142;SDS011;10509;46.476;7.134;2023-08-06T13:21:24;0.27;;;0.20;;
20142;SDS011;10509;46.476;7.134;2023-08-06T13:23:56;0.30;;;0.20;;
20142;SDS011;10509;46.476;7.134;2023-08-06T13:26:22;0.93;;;0.20;;
20142;SDS011;10509;46.476;7.134;2023-08-06T13:28:48;0.67;;;0.20;;
20142;SDS011;10509;46.476;7.134;2023-08-06T13:31:14;0.83;;;0.20;;
20142;SDS011;10509;46.476;7.134;2023-08-06T13:33:40;1.50;;;0.20;;
20142;SDS011;10509;46.476;7.134;2023-08-06T13:36:05;4.83;;;0.27;;
20142;SDS011;10509;46.476;7.134;2023-08-06T13:38:31;1.67;;;0.10;;
20142;SDS011;10509;46.476;7.134;2023-08-06T13:40:56;1.07;;;0.20;;
20142;SDS011;10509;46.476;7.134;2023-08-06T13:43:22;4.10;;;0.20;;
20142;SDS011;10509;46.476;7.134;2023-08-06T13:45:49;2.00;;;0.40;;
20142;SDS011;10509;46.476;7.134;2023-08-06T13:48:14;0.10;;;0.10;;
20142;SDS011;10509;46.476;7.134;2023-08-06T13:50:40;0.60;;;0.10;;
20142;SDS011;10509;46.476;7.134;2023-08-06T13:53:06;0.87;;;0.10;;
20142;SDS011;10509;46.476;7.134;2023-08-06T13:55:31;0.47;;;0.10;;
20142;SDS011;10509;46.476;7.134;2023-08-06T13:57:57;0.27;;;0.10;;
20142;SDS011;10509;46.476;7.134;2023-08-06T14:00:23;1.50;;;0.20;;
20142;SDS011;10509;46.476;7.134;2023-08-06T14:02:48;0.67;;;0.20;;
20142;SDS011;10509;46.476;7.134;2023-08-06T14:05:14;0.20;;;0.10;;
20142;SDS011;10509;46.476;7.134;2023-08-06T14:07:39;0.13;;;0.10;;
20142;SDS011;10509;46.476;7.134;2023-08-06T14:10:05;0.30;;;0.17;;
20142;SDS011;10509;46.476;7.134;2023-08-06T14:12:31;0.50;;;0.20;;
20142;SDS011;10509;46.476;7.134;2023-08-06T14:14:57;0.10;;;0.10;;
20142;SDS011;10509;46.476;7.134;2023-08-06T14:17:24;0.50;;;0.10;;
20142;SDS011;10509;46.476;7.134;2023-08-06T14:19:49;1.50;;;0.20;;
20142;SDS011;10509;46.476;7.134;2023-08-06T14:22:15;0.10;;;0.10;;
20142;SDS011;10509;46.476;7.134;2023-08-06T14:24:40;0.53;;;0.10;;
20142;SDS011;10509;46.476;7.134;2023-08-06T14:27:06;0.50;;;0.20;;
20142;SDS011;10509;46.476;7.134;2023-08-06T14:29:32;2.63;;;0.10;;
20142;SDS011;10509;46.476;7.134;2023-08-06T14:31:58;0.97;;;0.20;;
20142;SDS011;10509;46.476;7.134;2023-08-06T14:34:23;1.70;;;0.20;;
20142;SDS011;10509;46.476;7.134;2023-08-06T14:36:49;0.17;;;0.10;;
20142;SDS011;10509;46.476;7.134;2023-08-06T14:39:15;0.93;;;0.60;;
20142;SDS011;10509;46.476;7.134;2023-08-06T14:41:40;0.10;;;0.10;;
20142;SDS011;10509;46.476;7.134;2023-08-06T14:44:06;0.40;;;0.20;;
20142;SDS011;10509;46.476;7.134;2023-08-06T14:46:32;0.40;;;0.20;;
20142;SDS011;10509;46.476;7.134;2023-08-06T14:48:58;0.53;;;0.20;;
20142;SDS011;10509;46.476;7.134;2023-08-06T14:51:24;0.20;;;0.20;;
20142;SDS011;10509;46.476;7.134;2023-08-06T14:53:49;3.17;;;0.20;;
20142;SDS011;10509;46.476;7.134;2023-08-06T14:56:15;0.67;;;0.30;;